createdAt,value
2024-05-09T00:01:18.721Z,20.25
2024-05-09T00:04:21.615Z,22.20
2024-05-09T00:07:23.306Z,17.80
2024-05-09T00:10:34.575Z,18.85
2024-05-09T00:13:39.254Z,19.58
2024-05-09T00:16:40.921Z,20.30
2024-05-09T00:19:42.659Z,18.58
2024-05-09T00:22:45.824Z,17.88
2024-05-09T00:25:47.604Z,16.98
2024-05-09T00:28:49.317Z,19.45
2024-05-09T00:31:51.179Z,16.92
2024-05-09T00:34:53.149Z,17.95
2024-05-09T00:37:54.892Z,16.45
2024-05-09T00:40:56.603Z,17.55
2024-05-09T00:43:58.490Z,17.40
2024-05-09T00:47:00.199Z,16.70
2024-05-09T00:50:01.953Z,16.77
2024-05-09T00:53:05.131Z,15.88
2024-05-09T00:56:06.967Z,16.10
2024-05-09T00:59:08.734Z,16.70
2024-05-09T01:02:11.820Z,14.93
2024-05-09T01:05:13.716Z,18.38
2024-05-09T01:08:15.499Z,15.88
2024-05-09T01:11:18.423Z,17.20
2024-05-09T01:14:20.572Z,16.90
2024-05-09T01:17:22.478Z,15.98
2024-05-09T01:20:36.378Z,16.33
2024-05-09T01:23:44.203Z,14.52
2024-05-09T01:26:45.887Z,14.50
2024-05-09T01:29:47.547Z,15.45
2024-05-09T01:32:49.691Z,15.15
2024-05-09T01:35:51.476Z,14.70
2024-05-09T01:38:53.147Z,15.60
2024-05-09T01:41:54.943Z,14.68
2024-05-09T01:44:56.621Z,16.10
2024-05-09T01:47:58.799Z,15.80
2024-05-09T01:51:00.726Z,15.48
2024-05-09T01:54:02.870Z,15.65
2024-05-09T01:57:04.539Z,15.43
2024-05-09T02:00:07.893Z,16.48
2024-05-09T02:03:13.646Z,14.48
2024-05-09T02:06:17.953Z,15.02
2024-05-09T02:09:19.660Z,15.63
2024-05-09T02:12:22.773Z,14.43
2024-05-09T02:15:24.541Z,14.30
2024-05-09T02:18:26.369Z,15.23
2024-05-09T02:21:28.114Z,14.05
2024-05-09T02:24:30.963Z,15.15
2024-05-09T02:27:32.789Z,13.60
2024-05-09T02:30:40.006Z,14.05
2024-05-09T02:33:43.849Z,14.32
2024-05-09T02:36:45.605Z,13.23
2024-05-09T02:39:47.260Z,13.18
2024-05-09T02:42:49.239Z,13.60
2024-05-09T02:45:50.927Z,12.20
2024-05-09T02:48:52.660Z,12.30
2024-05-09T02:51:54.364Z,14.10
2024-05-09T02:54:56.034Z,14.18
2024-05-09T02:57:57.696Z,14.57
2024-05-09T03:00:59.453Z,15.23
2024-05-09T03:04:01.429Z,13.32
2024-05-09T03:07:03.152Z,14.00
2024-05-09T03:10:07.481Z,14.80
2024-05-09T03:13:15.195Z,14.32
2024-05-09T03:16:18.073Z,15.00
2024-05-09T03:19:20.018Z,14.65
2024-05-09T03:22:22.083Z,14.05
2024-05-09T03:25:23.768Z,14.55
2024-05-09T03:28:25.418Z,15.48
2024-05-09T03:31:27.066Z,13.77
2024-05-09T03:34:28.966Z,14.75
2024-05-09T03:37:30.671Z,15.57
2024-05-09T03:40:32.428Z,14.30
2024-05-09T03:43:34.207Z,14.57
2024-05-09T03:46:35.868Z,15.70
2024-05-09T03:49:37.569Z,14.45
2024-05-09T03:52:39.533Z,15.10
2024-05-09T03:55:41.183Z,14.65
2024-05-09T03:58:42.833Z,12.43
2024-05-09T04:01:44.808Z,14.40
2024-05-09T04:04:47.085Z,13.57
2024-05-09T04:07:48.878Z,13.48
2024-05-09T04:10:50.586Z,14.82
2024-05-09T04:13:53.485Z,13.10
2024-05-09T04:16:55.259Z,12.68
2024-05-09T04:19:56.976Z,13.60
2024-05-09T04:22:58.831Z,13.05
2024-05-09T04:26:04.309Z,14.20
2024-05-09T04:29:06.089Z,14.68
2024-05-09T04:32:08.193Z,13.57
2024-05-09T04:35:10.145Z,15.02
2024-05-09T04:38:11.942Z,12.85
2024-05-09T04:41:13.757Z,11.52
2024-05-09T04:44:15.868Z,12.73
2024-05-09T04:47:17.788Z,13.02
2024-05-09T04:50:29.066Z,12.55
2024-05-09T04:53:38.110Z,11.10
2024-05-09T04:56:39.927Z,12.23
2024-05-09T04:59:41.591Z,12.88
2024-05-09T05:02:43.771Z,11.82
2024-05-09T05:05:46.177Z,12.13
2024-05-09T05:08:48.139Z,12.40
2024-05-09T05:11:49.969Z,11.38
2024-05-09T05:14:55.954Z,12.60
2024-05-09T05:17:57.951Z,13.23
2024-05-09T05:20:59.800Z,13.15
2024-05-09T05:24:02.801Z,13.15
2024-05-09T05:27:04.473Z,13.65
2024-05-09T05:30:09.551Z,12.65
2024-05-09T05:33:18.762Z,14.23
2024-05-09T05:36:21.004Z,14.45
2024-05-09T05:39:22.937Z,12.57
2024-05-09T05:42:24.769Z,12.70
2024-05-09T05:45:26.472Z,13.80
2024-05-09T05:48:28.352Z,13.20
2024-05-09T05:51:30.118Z,12.82
2024-05-09T05:54:31.910Z,11.30
2024-05-09T05:57:34.463Z,13.20
2024-05-09T06:00:39.128Z,11.55
2024-05-09T06:03:42.599Z,10.85
2024-05-09T06:06:44.400Z,12.38
2024-05-09T06:09:47.488Z,11.82
2024-05-09T06:12:51.043Z,12.52
2024-05-09T06:15:52.710Z,12.10
2024-05-09T06:18:54.523Z,12.43
2024-05-09T06:21:56.302Z,11.95
2024-05-09T06:24:57.959Z,12.60
2024-05-09T06:27:59.659Z,11.80
2024-05-09T06:31:01.327Z,12.35
2024-05-09T06:34:03.325Z,12.18
2024-05-09T06:37:05.068Z,11.43
2024-05-09T06:40:07.638Z,11.95
2024-05-09T06:43:11.566Z,10.65
2024-05-09T06:46:13.258Z,11.02
2024-05-09T06:49:15.409Z,11.25
2024-05-09T06:52:17.496Z,10.25
2024-05-09T06:55:19.166Z,11.50
2024-05-09T06:58:20.868Z,10.23
2024-05-09T07:01:22.635Z,11.20
2024-05-09T07:04:25.674Z,11.07
2024-05-09T07:07:27.504Z,10.65
2024-05-09T07:10:34.494Z,10.45
2024-05-09T07:13:37.571Z,11.30
2024-05-09T07:16:39.262Z,11.55
2024-05-09T07:19:41.105Z,11.63
2024-05-09T07:22:44.084Z,9.68
2024-05-09T07:25:46.039Z,11.38
2024-05-09T07:28:47.929Z,9.75
2024-05-09T07:31:49.671Z,9.43
2024-05-09T07:34:51.580Z,9.82
2024-05-09T07:37:53.349Z,9.07
2024-05-09T07:40:55.146Z,9.75
2024-05-09T07:43:56.966Z,8.80
2024-05-09T07:51:54.770Z,9.10
2024-05-09T07:53:39.923Z,9.23
2024-05-09T07:56:46.328Z,8.55
2024-05-09T07:59:48.121Z,8.63
2024-05-09T08:02:49.840Z,9.45
2024-05-09T08:05:52.002Z,9.75
2024-05-09T08:08:53.820Z,9.48
2024-05-09T08:11:55.497Z,8.98
2024-05-09T08:14:57.179Z,11.25
2024-05-09T08:17:59.421Z,9.77
2024-05-09T08:21:01.247Z,9.20
2024-05-09T08:24:04.099Z,10.30
2024-05-09T08:27:05.830Z,9.07
2024-05-09T08:30:10.214Z,11.32
2024-05-09T08:33:14.375Z,10.65
2024-05-09T08:36:16.140Z,11.90
2024-05-09T08:39:17.806Z,10.40
2024-05-09T08:42:19.715Z,11.18
2024-05-09T08:45:21.387Z,9.90
2024-05-09T08:48:23.317Z,12.27
2024-05-09T08:51:25.188Z,10.77
2024-05-09T08:54:27.153Z,11.02
2024-05-09T08:57:28.950Z,10.75
2024-05-09T09:00:36.827Z,10.43
2024-05-09T09:06:42.014Z,11.68
2024-05-09T09:09:43.801Z,10.13
2024-05-09T09:12:45.892Z,9.73
2024-05-09T09:15:47.897Z,10.18
2024-05-09T09:18:51.287Z,9.52
2024-05-09T09:21:53.166Z,9.25
2024-05-09T09:24:55.077Z,9.65
2024-05-09T09:27:56.895Z,9.88
2024-05-09T09:30:58.641Z,9.68
2024-05-09T09:34:00.721Z,9.50
2024-05-09T09:37:02.512Z,11.13
2024-05-09T09:40:04.741Z,11.00
2024-05-09T09:43:08.769Z,9.52
2024-05-09T09:46:12.609Z,8.93
2024-05-09T09:49:15.053Z,9.60
2024-05-09T09:52:17.149Z,9.40
2024-05-09T09:55:19.071Z,9.82
2024-05-09T09:58:20.960Z,9.13
2024-05-09T10:01:23.000Z,9.00
2024-05-09T10:04:26.345Z,9.65
2024-05-09T10:07:28.287Z,9.95
2024-05-09T10:10:32.615Z,9.27
2024-05-09T10:13:35.395Z,8.65
2024-05-09T10:16:37.148Z,9.85
2024-05-09T10:19:38.902Z,8.40
2024-05-09T10:22:41.812Z,8.45
2024-05-09T10:25:43.504Z,8.52
2024-05-09T10:28:45.378Z,8.63
2024-05-09T10:31:47.228Z,7.72
2024-05-09T10:34:50.202Z,9.93
2024-05-09T10:37:51.873Z,8.85
2024-05-09T10:40:53.574Z,8.35
2024-05-09T10:43:55.280Z,8.65
2024-05-09T10:46:57.065Z,8.35
2024-05-09T10:49:58.873Z,9.20
2024-05-09T10:53:01.820Z,8.07
2024-05-09T10:56:03.485Z,8.27
2024-05-09T10:59:05.144Z,7.10
2024-05-09T11:02:08.030Z,7.07
2024-05-09T11:05:09.969Z,7.00
2024-05-09T11:08:11.732Z,7.18
2024-05-09T11:11:13.383Z,7.82
2024-05-09T11:14:15.238Z,8.32
2024-05-09T11:17:16.966Z,7.65
2024-05-09T11:20:26.453Z,7.35
2024-05-09T11:23:31.433Z,8.05
2024-05-09T11:26:33.108Z,6.32
2024-05-09T11:29:34.991Z,7.68
2024-05-09T11:32:36.803Z,6.90
2024-05-09T11:35:38.572Z,5.88
2024-05-09T11:38:40.233Z,7.10
2024-05-09T11:41:41.910Z,6.03
2024-05-09T11:44:43.617Z,6.47
2024-05-09T11:47:45.378Z,7.15
2024-05-09T11:50:47.100Z,6.18
2024-05-09T11:53:48.972Z,5.90
2024-05-09T11:56:51.669Z,5.90
2024-05-09T11:59:53.416Z,6.40
2024-05-09T12:02:58.879Z,5.43
2024-05-09T12:06:00.786Z,4.93
2024-05-09T12:09:02.691Z,4.72
2024-05-09T12:12:05.637Z,4.38
2024-05-09T12:15:07.311Z,4.43
2024-05-09T12:18:09.143Z,5.22
2024-05-09T12:21:11.080Z,6.15
2024-05-09T12:24:16.985Z,5.68
2024-05-09T12:27:19.986Z,4.75
2024-05-09T12:30:32.498Z,5.05
2024-05-09T12:33:39.401Z,5.25
2024-05-09T12:36:41.146Z,5.05
2024-05-09T12:39:42.827Z,4.30
2024-05-09T12:42:44.715Z,4.18
2024-05-09T12:45:46.426Z,3.63
2024-05-09T12:48:48.285Z,4.57
2024-05-09T12:51:50.043Z,5.40
2024-05-09T12:54:52.060Z,4.28
2024-05-09T12:57:53.784Z,5.15
2024-05-09T13:00:55.632Z,4.60
2024-05-09T13:03:57.766Z,4.30
2024-05-09T13:06:59.585Z,4.25
2024-05-09T13:10:01.347Z,5.50
2024-05-09T13:13:03.253Z,4.00
2024-05-09T13:16:05.019Z,4.88
2024-05-09T13:19:06.963Z,5.05
2024-05-09T13:22:08.856Z,4.47
2024-05-09T13:25:10.737Z,5.40
2024-05-09T13:28:12.546Z,5.22
2024-05-09T13:31:14.322Z,5.90
2024-05-09T13:34:16.101Z,4.28
2024-05-09T13:37:17.933Z,4.93
2024-05-09T13:40:27.263Z,5.40
2024-05-09T13:43:34.800Z,4.85
2024-05-09T13:46:36.493Z,4.53
2024-05-09T13:49:38.212Z,5.85
2024-05-09T13:52:40.197Z,5.30
2024-05-09T13:55:41.865Z,4.43
2024-05-09T13:58:43.956Z,5.82
2024-05-09T14:01:45.719Z,4.40
2024-05-09T14:04:48.949Z,4.57
2024-05-09T14:07:50.682Z,4.10
2024-05-09T14:10:53.714Z,4.80
2024-05-09T14:13:55.606Z,5.97
2024-05-09T14:16:57.361Z,5.90
2024-05-09T14:19:59.081Z,4.63
2024-05-09T14:23:01.148Z,4.32
2024-05-09T14:26:02.871Z,6.32
2024-05-09T14:29:04.532Z,5.18
2024-05-09T14:32:06.227Z,5.07
2024-05-09T14:35:08.063Z,5.50
2024-05-09T14:38:10.152Z,5.28
2024-05-09T14:41:13.397Z,4.75
2024-05-09T14:44:16.456Z,5.07
2024-05-09T14:47:18.480Z,6.15
2024-05-09T14:50:28.036Z,4.70
2024-05-09T14:53:36.695Z,5.77
2024-05-09T14:56:38.369Z,6.40
2024-05-09T14:59:40.038Z,4.70
2024-05-09T15:02:42.017Z,4.80
2024-05-09T15:05:43.781Z,4.50
2024-05-09T15:08:45.491Z,5.05
2024-05-09T15:11:47.569Z,6.20
2024-05-09T15:14:49.458Z,6.00
2024-05-09T15:17:51.552Z,5.85
2024-05-09T15:20:53.464Z,6.50
2024-05-09T15:23:55.391Z,5.68
2024-05-09T15:26:57.065Z,5.80
2024-05-09T15:30:02.083Z,5.85
2024-05-09T15:33:04.707Z,5.55
2024-05-09T15:36:07.386Z,4.72
2024-05-09T15:39:09.186Z,6.25
2024-05-09T15:42:12.313Z,6.00
2024-05-09T15:45:13.965Z,6.05
2024-05-09T15:48:15.725Z,6.25
2024-05-09T15:51:17.501Z,6.55
2024-05-09T15:54:21.565Z,5.72
2024-05-09T15:57:23.847Z,7.03
2024-05-09T16:00:36.460Z,8.18
2024-05-09T16:03:42.048Z,6.28
2024-05-09T16:06:47.872Z,6.72
2024-05-09T16:09:49.593Z,6.22
2024-05-09T16:12:52.576Z,6.45
2024-05-09T16:15:54.410Z,7.28
2024-05-09T16:18:56.295Z,5.53
2024-05-09T16:22:00.293Z,6.35
2024-05-09T16:25:02.072Z,5.70
2024-05-09T16:28:07.068Z,5.22
2024-05-09T16:31:11.475Z,5.88
2024-05-09T16:34:13.428Z,5.63
2024-05-09T16:37:15.183Z,6.20
2024-05-09T16:40:25.371Z,5.65
2024-05-09T16:43:36.075Z,5.05
2024-05-09T16:46:37.792Z,5.18
2024-05-09T16:49:39.501Z,5.85
2024-05-09T16:52:41.489Z,6.25
2024-05-09T16:55:43.176Z,6.07
2024-05-09T16:58:44.826Z,6.13
2024-05-09T17:01:46.614Z,5.35
2024-05-09T17:04:48.555Z,5.32
2024-05-09T17:07:50.732Z,6.38
2024-05-09T17:10:52.743Z,5.32
2024-05-09T17:13:54.708Z,6.03
2024-05-09T17:16:56.399Z,5.70
2024-05-09T17:19:58.063Z,5.00
2024-05-09T17:23:00.073Z,5.28
2024-05-09T17:26:01.724Z,4.78
2024-05-09T17:29:03.387Z,5.45
2024-05-09T17:32:06.021Z,5.07
2024-05-09T17:35:07.793Z,5.97
2024-05-09T17:38:09.527Z,6.30
2024-05-09T17:41:11.192Z,5.55
2024-05-09T17:44:13.153Z,5.65
2024-05-09T17:47:14.897Z,6.55
2024-05-09T17:50:23.875Z,6.00
2024-05-09T17:53:29.588Z,6.93
2024-05-09T17:56:31.246Z,6.45
2024-05-09T17:59:32.919Z,6.30
2024-05-09T18:02:36.013Z,7.13
2024-05-09T18:05:38.253Z,5.75
2024-05-09T18:08:40.159Z,5.97
2024-05-09T18:11:41.885Z,5.22
2024-05-09T18:14:43.905Z,5.65
2024-05-09T18:17:45.663Z,6.03
2024-05-09T18:20:47.560Z,5.45
2024-05-09T18:23:52.172Z,6.00
2024-05-09T18:26:53.856Z,8.88
2024-05-09T18:29:55.520Z,7.68
2024-05-09T18:32:57.576Z,9.00
2024-05-09T18:35:59.274Z,9.77
2024-05-09T18:39:00.927Z,9.73
2024-05-09T18:42:02.583Z,9.20
2024-05-09T18:45:04.260Z,9.60
2024-05-09T18:48:06.460Z,10.15
2024-05-09T18:51:08.567Z,9.77
2024-05-09T18:54:10.502Z,9.45
2024-05-09T18:57:12.179Z,9.23
2024-05-09T19:00:26.612Z,8.80
2024-05-09T19:03:35.669Z,10.30
2024-05-09T19:06:38.867Z,9.10
2024-05-09T19:09:40.932Z,9.50
2024-05-09T19:12:44.007Z,10.98
2024-05-09T19:15:45.816Z,10.50
2024-05-09T19:18:47.650Z,9.60
2024-05-09T19:21:49.408Z,9.13
2024-05-09T19:24:51.288Z,10.05
2024-05-09T19:27:53.049Z,10.25
2024-05-09T19:30:54.796Z,10.25
2024-05-09T19:33:57.837Z,10.70
2024-05-09T19:37:01.372Z,10.90
2024-05-09T19:40:05.352Z,9.93
2024-05-09T19:43:08.858Z,10.02
2024-05-09T19:46:10.732Z,10.88
2024-05-09T19:49:12.603Z,10.30
2024-05-09T19:52:14.578Z,10.65
2024-05-09T19:55:16.496Z,10.40
2024-05-09T19:58:18.375Z,11.93
2024-05-09T20:01:20.209Z,12.27
2024-05-09T20:04:23.316Z,10.77
2024-05-09T20:07:25.154Z,11.50
2024-05-09T20:10:31.810Z,10.88
2024-05-09T20:16:37.639Z,11.80
2024-05-09T20:19:39.381Z,11.98
2024-05-09T20:22:41.255Z,11.40
2024-05-09T20:25:43.005Z,12.30
2024-05-09T20:28:46.220Z,12.60
2024-05-09T20:31:47.925Z,14.57
2024-05-09T20:34:51.634Z,13.20
2024-05-09T20:37:53.316Z,12.18
2024-05-09T20:40:55.091Z,11.93
2024-05-09T20:44:00.524Z,12.50
2024-05-09T20:47:02.302Z,12.05
2024-05-09T20:50:11.343Z,11.68
2024-05-09T20:53:19.286Z,12.85
2024-05-09T20:56:22.005Z,14.98
2024-05-09T20:59:23.709Z,14.43
2024-05-09T21:02:25.806Z,15.95
2024-05-09T21:05:27.707Z,13.70
2024-05-09T21:08:29.486Z,15.90
2024-05-09T21:11:31.150Z,13.88
2024-05-09T21:14:32.924Z,13.90
2024-05-09T21:17:34.687Z,14.70
2024-05-09T21:20:37.968Z,13.75
2024-05-09T21:23:39.780Z,12.95
2024-05-09T21:26:41.463Z,13.65
2024-05-09T21:29:43.130Z,12.07
2024-05-09T21:32:45.120Z,11.68
2024-05-09T21:35:46.857Z,11.85
2024-05-09T21:38:48.537Z,11.80
2024-05-09T21:41:50.184Z,11.65
2024-05-09T21:44:53.153Z,10.85
2024-05-09T21:47:55.124Z,11.30
2024-05-09T21:50:56.987Z,10.38
2024-05-09T21:54:00.030Z,11.55
2024-05-09T21:57:01.746Z,10.55
2024-05-09T22:00:20.348Z,10.40
2024-05-09T22:03:27.194Z,10.20
2024-05-09T22:06:28.974Z,11.60
2024-05-09T22:09:30.697Z,11.55
2024-05-09T22:12:32.712Z,11.00
2024-05-09T22:15:35.658Z,11.20
2024-05-09T22:18:38.213Z,10.80
2024-05-09T22:21:40.017Z,10.98
2024-05-09T22:24:42.029Z,10.40
2024-05-09T22:27:43.910Z,9.80
2024-05-09T22:30:47.077Z,9.13
2024-05-09T22:33:49.545Z,9.50
2024-05-09T22:36:51.341Z,9.43
2024-05-09T22:39:53.056Z,9.50
2024-05-09T22:42:55.015Z,9.23
2024-05-09T22:45:56.919Z,9.02
2024-05-09T22:48:58.737Z,8.50
2024-05-09T22:52:00.510Z,8.68
2024-05-09T22:55:02.280Z,8.68
2024-05-09T22:58:04.122Z,9.02
2024-05-09T23:01:06.005Z,8.82
2024-05-09T23:04:08.140Z,9.73
2024-05-09T23:07:10.046Z,9.13
2024-05-09T23:10:17.204Z,9.85
2024-05-09T23:13:23.833Z,9.10
2024-05-09T23:16:25.739Z,8.30
2024-05-09T23:19:27.544Z,9.88
2024-05-09T23:22:29.335Z,8.77
2024-05-09T23:25:30.985Z,8.23
2024-05-09T23:28:32.710Z,8.60
2024-05-09T23:31:34.526Z,9.35
2024-05-09T23:34:37.570Z,9.95
2024-05-09T23:37:39.273Z,8.88
2024-05-09T23:40:42.148Z,9.07
2024-05-09T23:43:44.983Z,9.52
2024-05-09T23:46:46.679Z,8.50
2024-05-09T23:49:48.400Z,8.70
2024-05-09T23:52:50.262Z,9.05
2024-05-09T23:55:52.006Z,8.05
2024-05-09T23:58:53.667Z,8.70
